Time;durP1;ratioP1;P1;durP2;ratioP2;P2;SDS_P1;SDS_P2;PMS_P1;PMS_P2;Temp;Humidity;BMP_temperature;BMP_pressure;BME280_temperature;BME280_humidity;BME280_pressure;Samples;Min_cycle;Max_cycle;Signal;HPM_P1;HPM_P2
2022/05/30 00:01:21;;;;;;;5.82;4.45;;;;;;;;;;5013811;28;20034;-72
2022/05/30 00:03:47;;;;;;;5.53;4.32;;;;;;;;;;5032225;28;20041;-73
2022/05/30 00:06:13;;;;;;;4.75;4.35;;;;;;;;;;5014269;28;20033;-73
2022/05/30 00:08:39;;;;;;;8.35;4.80;;;;;;;;;;5030474;28;20477;-74
2022/05/30 00:11:05;;;;;;;8.00;4.47;;;;;;;;;;5031989;28;20049;-74
2022/05/30 00:13:31;;;;;;;7.00;5.55;;;;;;;;;;5014667;28;20045;-73
2022/05/30 00:15:57;;;;;;;7.82;7.03;;;;;;;;;;5031900;28;20036;-72
2022/05/30 00:18:23;;;;;;;9.15;8.15;;;;;;;;;;5031943;28;20052;-72
2022/05/30 00:20:49;;;;;;;12.80;8.68;;;;;;;;;;5014115;28;20025;-73
2022/05/30 00:23:15;;;;;;;7.10;6.50;;;;;;;;;;5014029;28;20072;-72
2022/05/30 00:45:00;;;;;;;7.43;6.72;;;;;;;;;;5049347;28;20128;-72
2022/05/30 00:47:26;;;;;;;6.60;5.30;;;;;;;;;;5050977;28;20103;-72
2022/05/30 00:49:53;;;;;;;8.80;5.57;;;;;;;;;;5033555;28;20049;-72
2022/05/30 00:52:21;;;;;;;7.00;6.15;;;;;;;;;;5016546;28;20091;-73
2022/05/30 00:54:52;;;;;;;7.75;6.03;;;;;;;;;;5033143;28;20040;-73
2022/05/30 00:57:21;;;;;;;9.25;6.50;;;;;;;;;;5050795;28;20420;-73
2022/05/30 00:59:50;;;;;;;8.23;5.90;;;;;;;;;;5033042;28;20129;-72
2022/05/30 01:02:16;;;;;;;6.10;4.82;;;;;;;;;;5049331;28;20037;-73
2022/05/30 01:07:28;;;;;;;7.50;5.50;;;;;;;;;;5032903;28;20128;-72
2022/05/30 01:09:54;;;;;;;7.03;5.57;;;;;;;;;;5049657;28;20417;-72
2022/05/30 01:12:32;;;;;;;5.65;5.15;;;;;;;;;;5015795;28;20037;-72
2022/05/30 01:14:58;;;;;;;7.10;6.15;;;;;;;;;;5016605;28;20047;-72
2022/05/30 01:17:24;;;;;;;6.78;5.55;;;;;;;;;;5050258;28;20041;-72
2022/05/30 01:19:52;;;;;;;11.55;5.55;;;;;;;;;;5032855;28;20090;-72
2022/05/30 01:22:25;;;;;;;6.40;5.72;;;;;;;;;;5032544;28;20516;-74
2022/05/30 01:24:54;;;;;;;9.90;5.93;;;;;;;;;;5049377;28;20052;-71
2022/05/30 01:27:46;;;;;;;6.32;5.65;;;;;;;;;;5049858;28;20128;-72
2022/05/30 01:30:13;;;;;;;8.85;5.28;;;;;;;;;;5015972;28;20051;-71
2022/05/30 01:32:39;;;;;;;7.78;5.45;;;;;;;;;;5032377;28;20047;-72
2022/05/30 01:35:06;;;;;;;5.15;4.50;;;;;;;;;;5048945;28;20124;-73
2022/05/30 01:37:35;;;;;;;7.70;5.47;;;;;;;;;;5032303;28;20135;-72
2022/05/30 01:40:02;;;;;;;7.47;5.35;;;;;;;;;;5032299;28;20111;-71
2022/05/30 01:42:28;;;;;;;6.28;5.18;;;;;;;;;;5032090;28;20041;-72
2022/05/30 01:44:54;;;;;;;6.30;5.00;;;;;;;;;;5063393;28;20056;-72
2022/05/30 01:47:20;;;;;;;9.88;5.30;;;;;;;;;;5068890;28;20071;-71
2022/05/30 01:49:47;;;;;;;5.53;4.85;;;;;;;;;;5073722;28;20044;-71
2022/05/30 01:52:13;;;;;;;5.90;4.70;;;;;;;;;;5073391;28;20044;-72
2022/05/30 01:54:39;;;;;;;6.38;5.18;;;;;;;;;;5072774;28;20055;-71
2022/05/30 01:57:33;;;;;;;10.18;5.35;;;;;;;;;;5071770;28;20040;-71
2022/05/30 02:00:21;;;;;;;7.28;5.10;;;;;;;;;;5060882;28;20496;-72
2022/05/30 02:02:49;;;;;;;7.63;5.50;;;;;;;;;;5055287;28;20180;-72
2022/05/30 02:05:15;;;;;;;8.88;5.43;;;;;;;;;;5071710;28;20056;-73
2022/05/30 02:07:42;;;;;;;14.20;5.85;;;;;;;;;;5072148;28;20051;-72
2022/05/30 02:10:09;;;;;;;14.70;5.63;;;;;;;;;;5072092;28;20040;-72
2022/05/30 02:12:37;;;;;;;15.05;5.55;;;;;;;;;;5071809;28;20047;-72
2022/05/30 02:15:19;;;;;;;11.15;6.30;;;;;;;;;;5071567;28;20044;-74
2022/05/30 02:17:48;;;;;;;14.52;5.50;;;;;;;;;;5071884;28;20127;-71
2022/05/30 02:20:14;;;;;;;18.55;6.25;;;;;;;;;;5071847;28;20130;-73
2022/05/30 02:22:40;;;;;;;14.52;5.28;;;;;;;;;;5071991;28;20028;-73
2022/05/30 02:25:06;;;;;;;11.23;6.20;;;;;;;;;;5072077;28;20118;-72
2022/05/30 02:27:32;;;;;;;10.45;5.53;;;;;;;;;;5089527;28;20035;-71
2022/05/30 02:29:58;;;;;;;7.75;5.63;;;;;;;;;;5086914;28;20040;-71
2022/05/30 02:32:26;;;;;;;6.93;5.25;;;;;;;;;;5054780;28;20119;-72
2022/05/30 02:37:36;;;;;;;13.32;5.35;;;;;;;;;;5088239;28;20051;-73
2022/05/30 02:40:18;;;;;;;15.48;6.10;;;;;;;;;;5064720;28;20050;-73
2022/05/30 02:43:05;;;;;;;14.85;5.47;;;;;;;;;;5069345;28;20037;-74
2022/05/30 02:45:40;;;;;;;6.63;4.85;;;;;;;;;;5051541;28;20060;-73
2022/05/30 02:48:06;;;;;;;7.00;5.03;;;;;;;;;;5051790;28;20117;-72
2022/05/30 02:50:32;;;;;;;7.53;5.75;;;;;;;;;;5068969;28;20059;-73
2022/05/30 02:52:59;;;;;;;5.88;5.10;;;;;;;;;;5051501;28;20127;-72
2022/05/30 02:55:45;;;;;;;9.82;6.68;;;;;;;;;;5069141;28;20131;-72
2022/05/30 02:58:12;;;;;;;6.88;5.90;;;;;;;;;;5068338;28;20109;-73
2022/05/30 03:00:38;;;;;;;7.82;6.22;;;;;;;;;;5055395;28;20502;-73
2022/05/30 03:03:04;;;;;;;8.40;5.45;;;;;;;;;;5067012;28;20127;-73
2022/05/30 03:05:30;;;;;;;9.20;5.20;;;;;;;;;;5088381;28;20119;-73
2022/05/30 03:07:59;;;;;;;16.25;5.53;;;;;;;;;;5089089;28;20126;-73
2022/05/30 03:10:52;;;;;;;8.88;5.03;;;;;;;;;;5070798;28;20047;-72
2022/05/30 03:13:17;;;;;;;7.72;5.60;;;;;;;;;;5089613;28;20625;-73
2022/05/30 03:15:44;;;;;;;11.90;5.70;;;;;;;;;;5103151;28;20047;-73
2022/05/30 03:18:10;;;;;;;10.23;5.38;;;;;;;;;;5091948;28;20035;-72
2022/05/30 03:20:36;;;;;;;11.93;5.45;;;;;;;;;;5067209;28;20048;-73
2022/05/30 03:23:05;;;;;;;7.68;5.80;;;;;;;;;;5071425;28;20903;-73
2022/05/30 03:25:51;;;;;;;9.40;5.30;;;;;;;;;;5066581;28;20080;-73
2022/05/30 03:28:18;;;;;;;6.93;5.55;;;;;;;;;;5054167;28;20113;-73
2022/05/30 03:30:44;;;;;;;8.90;4.68;;;;;;;;;;5088964;28;20048;-73
2022/05/30 03:33:10;;;;;;;5.28;4.78;;;;;;;;;;5089249;28;20032;-73
2022/05/30 03:35:36;;;;;;;11.35;5.00;;;;;;;;;;5070765;28;20605;-73
2022/05/30 03:38:23;;;;;;;8.45;5.18;;;;;;;;;;5060652;28;20129;-71
2022/05/30 03:41:07;;;;;;;5.75;4.93;;;;;;;;;;5092543;28;20040;-73
2022/05/30 03:43:52;;;;;;;10.93;5.75;;;;;;;;;;5057481;28;20530;-73
2022/05/30 03:46:18;;;;;;;7.85;5.10;;;;;;;;;;5074267;28;20500;-72
2022/05/30 03:48:44;;;;;;;6.45;5.32;;;;;;;;;;5074434;28;20047;-71
2022/05/30 03:51:12;;;;;;;9.07;5.90;;;;;;;;;;5073989;28;20040;-71
2022/05/30 03:53:39;;;;;;;5.65;5.13;;;;;;;;;;5091086;28;20044;-74
2022/05/30 03:56:05;;;;;;;7.68;5.93;;;;;;;;;;5074209;28;20412;-73
2022/05/30 03:58:31;;;;;;;7.28;4.88;;;;;;;;;;5092083;28;20082;-72
2022/05/30 04:00:58;;;;;;;7.72;4.72;;;;;;;;;;5089928;28;20051;-72
2022/05/30 04:03:24;;;;;;;8.60;4.95;;;;;;;;;;5053891;28;20037;-74
2022/05/30 04:05:50;;;;;;;8.93;5.22;;;;;;;;;;5071790;28;20040;-73
2022/05/30 04:08:16;;;;;;;8.57;5.32;;;;;;;;;;5054197;28;20112;-73
2022/05/30 04:10:54;;;;;;;11.00;5.25;;;;;;;;;;5072119;28;20523;-72
2022/05/30 04:13:39;;;;;;;12.88;5.32;;;;;;;;;;5045340;28;20464;-73
2022/05/30 04:16:30;;;;;;;6.80;5.10;;;;;;;;;;5072593;28;20044;-75
2022/05/30 04:19:01;;;;;;;8.27;4.85;;;;;;;;;;5039104;28;20518;-73
2022/05/30 04:21:28;;;;;;;8.13;4.32;;;;;;;;;;5065543;28;20113;-72
2022/05/30 04:23:54;;;;;;;6.60;4.60;;;;;;;;;;5073876;28;20458;-73
2022/05/30 04:26:22;;;;;;;12.13;6.07;;;;;;;;;;5056597;28;20040;-74
2022/05/30 04:28:51;;;;;;;9.43;5.00;;;;;;;;;;5073832;28;20044;-73
2022/05/30 04:31:36;;;;;;;8.45;4.50;;;;;;;;;;5073302;28;20504;-73
2022/05/30 04:34:02;;;;;;;6.57;4.22;;;;;;;;;;5057207;28;20044;-74
2022/05/30 04:36:28;;;;;;;9.10;4.28;;;;;;;;;;5073212;28;20047;-72
2022/05/30 04:38:55;;;;;;;6.40;4.07;;;;;;;;;;5073537;28;20519;-73
2022/05/30 04:41:37;;;;;;;9.77;4.13;;;;;;;;;;5091160;28;20040;-73
2022/05/30 04:44:21;;;;;;;7.03;4.07;;;;;;;;;;5091191;28;20064;-73
2022/05/30 04:47:06;;;;;;;4.93;4.00;;;;;;;;;;5090829;28;20059;-72
2022/05/30 04:49:34;;;;;;;7.45;3.83;;;;;;;;;;5056375;28;20050;-73
2022/05/30 04:52:00;;;;;;;8.00;3.95;;;;;;;;;;5089901;28;20050;-75
2022/05/30 04:54:26;;;;;;;5.15;3.50;;;;;;;;;;5072972;28;20099;-74
2022/05/30 04:57:18;;;;;;;3.95;2.75;;;;;;;;;;5076664;28;20064;-70
2022/05/30 04:59:51;;;;;;;6.65;3.28;;;;;;;;;;5072914;28;20066;-72
2022/05/30 05:02:17;;;;;;;4.72;3.08;;;;;;;;;;5091030;28;20036;-72
2022/05/30 05:04:44;;;;;;;3.40;3.05;;;;;;;;;;5072943;28;20047;-73
2022/05/30 05:07:10;;;;;;;7.82;3.00;;;;;;;;;;5056156;28;20092;-74
2022/05/30 05:09:46;;;;;;;5.93;3.10;;;;;;;;;;5073830;28;20483;-74
2022/05/30 05:12:51;;;;;;;4.13;3.15;;;;;;;;;;5028183;28;20601;-74
2022/05/30 05:15:46;;;;;;;3.45;2.95;;;;;;;;;;4976407;28;20061;-73
2022/05/30 05:18:25;;;;;;;3.75;2.78;;;;;;;;;;5059848;28;20052;-72
2022/05/30 05:20:51;;;;;;;5.65;3.22;;;;;;;;;;5089577;28;20048;-74
2022/05/30 05:23:16;;;;;;;2.92;2.40;;;;;;;;;;5072887;28;20036;-72
2022/05/30 05:26:01;;;;;;;3.45;2.38;;;;;;;;;;5089282;28;20047;-72
2022/05/30 05:28:35;;;;;;;4.93;2.25;;;;;;;;;;5089402;28;20066;-73
2022/05/30 05:31:01;;;;;;;4.60;2.30;;;;;;;;;;5090646;28;20500;-75
2022/05/30 05:33:27;;;;;;;4.90;2.83;;;;;;;;;;5060615;28;20124;-74
2022/05/30 05:35:53;;;;;;;3.95;2.38;;;;;;;;;;5078360;28;20040;-75
2022/05/30 05:38:20;;;;;;;4.65;2.50;;;;;;;;;;5054201;28;20415;-74
2022/05/30 05:40:58;;;;;;;6.32;2.30;;;;;;;;;;5061409;28;20050;-74
2022/05/30 05:43:31;;;;;;;5.82;2.10;;;;;;;;;;5039721;28;20056;-74
2022/05/30 05:45:57;;;;;;;1.98;1.83;;;;;;;;;;5044997;28;20054;-74
2022/05/30 05:48:23;;;;;;;1.65;1.55;;;;;;;;;;5059009;28;20048;-75
2022/05/30 05:50:50;;;;;;;2.17;1.65;;;;;;;;;;5076715;28;20081;-75
2022/05/30 05:53:15;;;;;;;3.25;1.70;;;;;;;;;;5056912;28;20160;-76
2022/05/30 05:55:44;;;;;;;6.60;1.73;;;;;;;;;;5051530;28;20048;-76
2022/05/30 05:58:10;;;;;;;1.70;1.60;;;;;;;;;;5065608;28;20040;-74
2022/05/30 06:00:36;;;;;;;2.95;1.50;;;;;;;;;;5066032;28;20083;-75
2022/05/30 06:03:03;;;;;;;2.33;1.60;;;;;;;;;;5042631;28;20512;-75
2022/05/30 06:05:49;;;;;;;4.72;1.70;;;;;;;;;;5084218;28;20036;-74
2022/05/30 06:08:40;;;;;;;2.38;1.30;;;;;;;;;;5070418;28;20097;-74
2022/05/30 06:11:19;;;;;;;3.03;1.80;;;;;;;;;;5068128;28;20098;-75
2022/05/30 06:13:48;;;;;;;2.78;1.60;;;;;;;;;;5069678;28;20590;-73
2022/05/30 06:16:19;;;;;;;2.05;1.42;;;;;;;;;;5067094;28;20155;-73
2022/05/30 06:18:48;;;;;;;1.85;1.58;;;;;;;;;;5074820;28;20055;-77
2022/05/30 06:21:14;;;;;;;2.30;1.27;;;;;;;;;;5075313;28;20079;-74
2022/05/30 06:23:46;;;;;;;2.30;1.55;;;;;;;;;;5048872;28;20090;-74
2022/05/30 06:26:31;;;;;;;1.80;1.70;;;;;;;;;;5078055;28;20507;-75
2022/05/30 06:29:23;;;;;;;2.63;1.40;;;;;;;;;;5075004;28;20040;-75
2022/05/30 06:31:50;;;;;;;1.65;1.30;;;;;;;;;;5062953;28;20455;-75
2022/05/30 06:34:17;;;;;;;2.60;1.55;;;;;;;;;;5075197;28;20058;-76
2022/05/30 06:36:44;;;;;;;2.00;1.80;;;;;;;;;;5066878;28;20470;-75
2022/05/30 06:39:10;;;;;;;1.88;1.77;;;;;;;;;;5076533;28;20062;-74
2022/05/30 06:42:09;;;;;;;1.63;1.50;;;;;;;;;;5073319;28;20040;-75
2022/05/30 06:44:55;;;;;;;2.10;1.65;;;;;;;;;;5076069;28;20241;-75
2022/05/30 06:47:40;;;;;;;4.20;1.65;;;;;;;;;;5078124;28;20039;-74
2022/05/30 06:50:44;;;;;;;3.13;2.13;;;;;;;;;;5005569;28;20091;-75
2022/05/30 06:53:13;;;;;;;3.28;1.92;;;;;;;;;;5101048;23;20140;-73
2022/05/30 06:55:39;;;;;;;1.90;1.75;;;;;;;;;;5062866;28;20056;-71
2022/05/30 06:58:14;;;;;;;2.38;1.80;;;;;;;;;;5046245;28;20053;-71
2022/05/30 07:00:42;;;;;;;4.18;1.83;;;;;;;;;;5046460;28;20044;-72
2022/05/30 07:03:26;;;;;;;3.78;1.90;;;;;;;;;;5063722;28;20504;-71
2022/05/30 07:06:13;;;;;;;3.00;1.67;;;;;;;;;;5050091;28;20052;-70
2022/05/30 07:08:58;;;;;;;3.97;2.38;;;;;;;;;;5049019;28;20131;-72
2022/05/30 07:11:53;;;;;;;2.10;1.90;;;;;;;;;;5048292;28;20059;-72
2022/05/30 07:14:21;;;;;;;2.80;1.88;;;;;;;;;;5062727;28;20099;-72
2022/05/30 07:16:48;;;;;;;1.88;1.77;;;;;;;;;;5060352;28;20672;-72
2022/05/30 07:19:14;;;;;;;2.42;1.60;;;;;;;;;;5024072;28;20122;-71
2022/05/30 07:21:50;;;;;;;1.90;1.80;;;;;;;;;;5060014;28;20049;-72
2022/05/30 07:24:35;;;;;;;3.08;1.80;;;;;;;;;;5069472;28;20064;-73
2022/05/30 07:27:19;;;;;;;3.78;1.90;;;;;;;;;;5064499;28;20590;-73
2022/05/30 07:30:17;;;;;;;1.90;1.80;;;;;;;;;;5014376;28;20051;-72
2022/05/30 07:33:02;;;;;;;2.35;1.80;;;;;;;;;;5063281;28;20036;-71
2022/05/30 07:35:46;;;;;;;3.90;1.60;;;;;;;;;;5063471;28;20127;-73
2022/05/30 07:38:31;;;;;;;4.47;1.90;;;;;;;;;;5062198;28;20430;-73
2022/05/30 07:41:16;;;;;;;2.08;1.60;;;;;;;;;;5056195;28;20139;-72
2022/05/30 07:44:00;;;;;;;2.63;2.00;;;;;;;;;;5064132;28;20045;-72
2022/05/30 07:46:52;;;;;;;11.13;2.15;;;;;;;;;;5059695;28;20049;-72
2022/05/30 07:49:28;;;;;;;8.95;2.10;;;;;;;;;;5064122;28;20052;-72
2022/05/30 07:52:06;;;;;;;2.00;1.90;;;;;;;;;;5056076;28;20425;-71
2022/05/30 07:54:43;;;;;;;3.00;1.80;;;;;;;;;;5051457;28;20143;-71
2022/05/30 07:57:15;;;;;;;8.13;2.50;;;;;;;;;;5050361;28;20059;-70
2022/05/30 07:59:41;;;;;;;3.17;2.00;;;;;;;;;;5072547;28;20577;-72
2022/05/30 08:02:08;;;;;;;2.35;1.65;;;;;;;;;;5055611;28;20101;-71
2022/05/30 08:04:36;;;;;;;3.63;1.70;;;;;;;;;;5073382;28;20127;-72
2022/05/30 08:07:20;;;;;;;2.58;1.77;;;;;;;;;;5090779;28;20101;-72
2022/05/30 08:10:18;;;;;;;2.67;1.80;;;;;;;;;;5078753;28;20454;-76
2022/05/30 08:12:46;;;;;;;2.05;1.40;;;;;;;;;;5056117;28;20188;-72
2022/05/30 08:15:36;;;;;;;6.13;1.77;;;;;;;;;;5073822;28;20675;-71
2022/05/30 08:18:24;;;;;;;1.70;1.60;;;;;;;;;;5073084;28;20083;-71
2022/05/30 08:21:00;;;;;;;1.83;1.55;;;;;;;;;;5090628;28;20047;-72
2022/05/30 08:23:27;;;;;;;2.65;2.05;;;;;;;;;;5090544;28;20141;-71
2022/05/30 08:25:59;;;;;;;3.47;1.88;;;;;;;;;;5090695;28;20047;-71
2022/05/30 08:28:29;;;;;;;7.05;1.80;;;;;;;;;;5073780;28;20040;-71
2022/05/30 08:30:58;;;;;;;3.17;1.80;;;;;;;;;;5045424;28;20059;-71
2022/05/30 08:33:43;;;;;;;3.83;1.77;;;;;;;;;;5056226;28;20047;-72
2022/05/30 08:36:15;;;;;;;2.15;1.42;;;;;;;;;;5071326;28;20049;-72
2022/05/30 08:38:42;;;;;;;1.85;1.75;;;;;;;;;;5053337;28;20072;-71
2022/05/30 08:44:22;;;;;;;1.83;1.60;;;;;;;;;;5052899;28;20036;-72
2022/05/30 08:47:35;;;;;;;3.65;1.60;;;;;;;;;;5053567;28;20071;-71
2022/05/30 08:50:08;;;;;;;1.98;1.52;;;;;;;;;;5070045;28;20060;-72
2022/05/30 08:52:43;;;;;;;2.08;1.30;;;;;;;;;;5036526;28;20063;-72
2022/05/30 08:55:28;;;;;;;1.60;1.50;;;;;;;;;;5036810;28;20551;-71
2022/05/30 08:58:03;;;;;;;2.17;1.27;;;;;;;;;;5047213;28;20507;-71
2022/05/30 09:00:36;;;;;;;1.63;1.52;;;;;;;;;;5056491;28;20063;-71
2022/05/30 09:03:29;;;;;;;1.77;1.67;;;;;;;;;;5048340;28;20051;-71
2022/05/30 09:06:04;;;;;;;2.13;1.63;;;;;;;;;;5057433;28;20043;-71
2022/05/30 09:08:30;;;;;;;1.80;1.50;;;;;;;;;;5073215;28;20043;-71
2022/05/30 09:11:25;;;;;;;3.70;1.60;;;;;;;;;;5090819;28;20083;-69
2022/05/30 09:13:55;;;;;;;4.25;1.30;;;;;;;;;;5072493;28;20040;-70
2022/05/30 09:16:33;;;;;;;1.27;1.20;;;;;;;;;;5057428;28;20047;-71
2022/05/30 09:19:06;;;;;;;1.50;1.40;;;;;;;;;;5072410;28;20028;-71
2022/05/30 09:21:34;;;;;;;2.28;1.30;;;;;;;;;;5072345;28;20040;-70
2022/05/30 09:24:02;;;;;;;3.95;1.25;;;;;;;;;;5072296;28;20051;-71
2022/05/30 09:26:32;;;;;;;3.58;1.48;;;;;;;;;;5072189;28;20139;-71
2022/05/30 09:29:12;;;;;;;1.52;1.42;;;;;;;;;;5055678;28;20060;-70
2022/05/30 09:32:16;;;;;;;1.67;1.50;;;;;;;;;;5065916;28;20050;-70
2022/05/30 09:34:49;;;;;;;2.78;1.75;;;;;;;;;;5090465;28;20099;-71
2022/05/30 09:37:35;;;;;;;1.60;1.50;;;;;;;;;;5075705;28;20075;-71
2022/05/30 09:40:15;;;;;;;1.75;1.35;;;;;;;;;;5072234;28;20040;-71
2022/05/30 09:43:11;;;;;;;3.33;1.50;;;;;;;;;;5063300;28;20650;-71
2022/05/30 09:45:38;;;;;;;2.35;1.77;;;;;;;;;;5071944;28;20074;-72
2022/05/30 09:48:05;;;;;;;4.50;1.70;;;;;;;;;;5090397;28;20055;-71
2022/05/30 09:50:43;;;;;;;3.20;1.13;;;;;;;;;;5071841;28;20105;-71
2022/05/30 09:53:09;;;;;;;1.67;1.50;;;;;;;;;;5071750;28;20044;-71
2022/05/30 09:55:37;;;;;;;1.40;1.30;;;;;;;;;;5055217;28;20123;-72
2022/05/30 09:58:09;;;;;;;1.50;1.30;;;;;;;;;;5072093;28;20816;-70
2022/05/30 10:00:49;;;;;;;1.42;1.30;;;;;;;;;;5072249;28;20067;-71
2022/05/30 10:03:27;;;;;;;1.40;1.30;;;;;;;;;;5090735;28;20064;-71
2022/05/30 10:06:13;;;;;;;2.03;1.65;;;;;;;;;;5071997;28;20050;-71
2022/05/30 10:08:39;;;;;;;1.80;1.67;;;;;;;;;;5055101;28;20410;-71
2022/05/30 10:11:32;;;;;;;4.10;1.80;;;;;;;;;;5071822;28;20143;-71
2022/05/30 10:14:22;;;;;;;2.60;1.40;;;;;;;;;;5071829;28;20054;-70
2022/05/30 10:17:10;;;;;;;1.50;1.40;;;;;;;;;;5071922;28;20543;-70
2022/05/30 10:19:36;;;;;;;5.85;1.50;;;;;;;;;;5071499;28;20515;-71
2022/05/30 10:28:49;;;;;;;3.58;1.90;;;;;;;;;;5040406;28;20044;-71
2022/05/30 10:31:34;;;;;;;4.07;1.70;;;;;;;;;;5089389;28;20423;-72
2022/05/30 10:34:26;;;;;;;1.55;1.45;;;;;;;;;;5071480;28;20040;-70
2022/05/30 10:37:00;;;;;;;2.50;1.60;;;;;;;;;;5071528;28;20055;-71
2022/05/30 10:39:54;;;;;;;5.97;1.45;;;;;;;;;;5071680;28;20415;-70
2022/05/30 10:42:23;;;;;;;3.85;1.48;;;;;;;;;;5089720;28;20040;-70
2022/05/30 10:44:50;;;;;;;2.40;1.80;;;;;;;;;;5089307;28;20036;-70
2022/05/30 10:47:16;;;;;;;1.48;1.38;;;;;;;;;;5074853;28;20044;-71
2022/05/30 10:49:46;;;;;;;1.50;1.40;;;;;;;;;;5075071;28;20515;-71
2022/05/30 10:52:21;;;;;;;1.27;1.27;;;;;;;;;;5059057;28;20044;-71
2022/05/30 10:54:57;;;;;;;2.97;1.67;;;;;;;;;;5075218;28;20412;-71
2022/05/30 10:57:34;;;;;;;3.45;1.60;;;;;;;;;;5058894;28;20036;-71
2022/05/30 11:00:05;;;;;;;1.45;1.30;;;;;;;;;;5058556;28;20036;-70
2022/05/30 11:02:38;;;;;;;5.05;1.50;;;;;;;;;;5075134;28;20400;-71
2022/05/30 11:05:10;;;;;;;3.05;1.50;;;;;;;;;;5093241;28;20097;-70
2022/05/30 11:07:36;;;;;;;1.40;1.38;;;;;;;;;;5058489;28;20494;-71
2022/05/30 11:10:05;;;;;;;4.43;1.13;;;;;;;;;;5076000;28;20052;-71
2022/05/30 11:12:38;;;;;;;1.98;1.70;;;;;;;;;;5059171;28;20098;-71
2022/05/30 11:15:07;;;;;;;1.38;1.15;;;;;;;;;;5075221;28;20047;-71
2022/05/30 11:17:59;;;;;;;1.30;1.20;;;;;;;;;;5077864;28;20089;-71
2022/05/30 11:20:52;;;;;;;1.13;1.13;;;;;;;;;;5081840;28;20044;-71
2022/05/30 11:23:19;;;;;;;1.23;1.23;;;;;;;;;;5041640;28;20070;-71
2022/05/30 11:25:51;;;;;;;1.60;1.50;;;;;;;;;;5092814;28;20048;-71
2022/05/30 11:28:17;;;;;;;2.15;1.35;;;;;;;;;;5093107;28;20048;-71
2022/05/30 11:30:48;;;;;;;1.50;1.40;;;;;;;;;;5074311;28;20051;-71
2022/05/30 11:33:17;;;;;;;2.63;1.25;;;;;;;;;;5074926;28;20040;-71
2022/05/30 11:35:49;;;;;;;1.90;1.27;;;;;;;;;;5092742;28;20044;-71
2022/05/30 11:38:22;;;;;;;1.60;1.30;;;;;;;;;;5075103;28;20594;-71
2022/05/30 11:40:51;;;;;;;3.10;1.70;;;;;;;;;;5092757;28;20118;-70
2022/05/30 11:43:35;;;;;;;1.25;1.25;;;;;;;;;;5075006;28;20046;-70
2022/05/30 11:46:20;;;;;;;1.30;1.30;;;;;;;;;;5092389;28;20521;-71
2022/05/30 11:48:52;;;;;;;1.85;1.27;;;;;;;;;;5074326;28;20052;-71
2022/05/30 11:51:21;;;;;;;3.33;1.52;;;;;;;;;;5092513;28;20048;-70
2022/05/30 11:53:53;;;;;;;1.70;1.48;;;;;;;;;;5074004;28;20059;-70
2022/05/30 11:56:26;;;;;;;1.17;1.17;;;;;;;;;;5091035;28;20044;-70
2022/05/30 11:59:11;;;;;;;3.22;1.20;;;;;;;;;;5074166;28;20549;-70
2022/05/30 12:01:38;;;;;;;2.30;1.45;;;;;;;;;;5092263;28;20036;-71
2022/05/30 12:04:23;;;;;;;1.42;1.33;;;;;;;;;;5092407;28;20036;-70
2022/05/30 12:06:55;;;;;;;1.45;1.33;;;;;;;;;;5057451;28;20040;-70
2022/05/30 12:09:29;;;;;;;1.30;1.30;;;;;;;;;;5092139;28;20058;-70
2022/05/30 12:12:04;;;;;;;4.25;1.45;;;;;;;;;;5074182;28;20105;-70
2022/05/30 12:14:50;;;;;;;2.28;1.08;;;;;;;;;;5092277;28;20075;-70
2022/05/30 12:17:19;;;;;;;2.33;1.95;;;;;;;;;;5074143;28;20051;-69
2022/05/30 12:25:35;;;;;;;2.58;1.20;;;;;;;;;;5092021;28;20044;-71
2022/05/30 12:28:02;;;;;;;1.30;1.30;;;;;;;;;;5091925;28;20052;-71
2022/05/30 12:30:33;;;;;;;2.65;1.42;;;;;;;;;;5091733;28;20467;-69
2022/05/30 12:33:00;;;;;;;1.35;1.25;;;;;;;;;;5073552;28;20040;-69
2022/05/30 12:35:27;;;;;;;1.10;1.10;;;;;;;;;;5074013;28;20036;-71
2022/05/30 12:38:06;;;;;;;1.38;1.38;;;;;;;;;;5073634;28;20050;-71
2022/05/30 12:40:36;;;;;;;1.00;1.00;;;;;;;;;;5091842;28;20460;-70
2022/05/30 12:43:06;;;;;;;1.05;1.00;;;;;;;;;;5091870;28;20100;-71
2022/05/30 12:45:43;;;;;;;1.17;1.17;;;;;;;;;;5091630;28;20043;-70
2022/05/30 12:48:28;;;;;;;2.45;1.23;;;;;;;;;;5073598;28;20080;-70
2022/05/30 12:50:55;;;;;;;1.35;1.13;;;;;;;;;;5069513;28;20044;-71
2022/05/30 12:53:22;;;;;;;1.33;1.20;;;;;;;;;;5091183;28;20139;-72
2022/05/30 12:55:52;;;;;;;1.23;1.20;;;;;;;;;;5073203;28;20044;-71
2022/05/30 12:58:33;;;;;;;1.38;1.13;;;;;;;;;;5073462;28;20039;-71
2022/05/30 13:01:18;;;;;;;1.55;1.45;;;;;;;;;;5073003;28;20059;-71
2022/05/30 13:03:46;;;;;;;1.55;1.38;;;;;;;;;;5073486;28;20036;-71
2022/05/30 13:06:19;;;;;;;1.83;1.30;;;;;;;;;;5091108;28;20078;-70
2022/05/30 13:08:56;;;;;;;2.88;1.10;;;;;;;;;;5072339;28;20185;-70
2022/05/30 13:11:29;;;;;;;1.10;1.10;;;;;;;;;;5073157;28;20051;-70
2022/05/30 13:13:55;;;;;;;3.88;1.75;;;;;;;;;;5072933;28;20038;-71
2022/05/30 13:16:26;;;;;;;1.35;1.35;;;;;;;;;;5090779;28;20163;-70
2022/05/30 13:18:53;;;;;;;1.27;1.20;;;;;;;;;;5072905;28;20072;-70
2022/05/30 13:21:19;;;;;;;1.30;1.20;;;;;;;;;;5072752;28;20036;-71
2022/05/30 13:23:45;;;;;;;1.77;1.23;;;;;;;;;;5072801;28;20530;-71
2022/05/30 13:26:12;;;;;;;1.42;1.35;;;;;;;;;;5090731;28;20168;-71
2022/05/30 13:28:41;;;;;;;1.00;1.00;;;;;;;;;;5091028;28;20044;-70
2022/05/30 13:31:08;;;;;;;1.27;1.27;;;;;;;;;;5073134;28;20423;-71
2022/05/30 13:33:39;;;;;;;2.72;1.50;;;;;;;;;;5091163;28;20032;-70
2022/05/30 13:36:05;;;;;;;1.40;1.30;;;;;;;;;;5071756;28;20193;-70
2022/05/30 13:38:48;;;;;;;8.65;2.40;;;;;;;;;;5090291;28;20032;-71
2022/05/30 13:41:24;;;;;;;2.15;1.70;;;;;;;;;;5072493;28;20708;-71
2022/05/30 13:43:50;;;;;;;1.65;1.55;;;;;;;;;;5090837;28;20377;-70
2022/05/30 13:46:46;;;;;;;1.85;1.75;;;;;;;;;;5072356;28;20040;-71
2022/05/30 13:49:12;;;;;;;1.30;1.30;;;;;;;;;;5054003;28;20053;-71
2022/05/30 13:51:42;;;;;;;1.92;1.40;;;;;;;;;;5091375;28;20707;-69
2022/05/30 13:54:09;;;;;;;5.53;1.60;;;;;;;;;;5073867;28;20051;-70
2022/05/30 13:56:37;;;;;;;1.85;1.75;;;;;;;;;;5073953;28;20036;-71
2022/05/30 13:59:23;;;;;;;3.95;1.40;;;;;;;;;;5072341;28;20076;-70
2022/05/30 14:02:19;;;;;;;3.33;1.75;;;;;;;;;;5085776;28;20503;-71
2022/05/30 14:04:46;;;;;;;1.33;1.33;;;;;;;;;;5092237;28;20032;-70
2022/05/30 14:07:32;;;;;;;3.83;2.00;;;;;;;;;;5092164;28;20047;-70
2022/05/30 14:09:58;;;;;;;1.88;1.70;;;;;;;;;;5074343;28;20062;-69
2022/05/30 14:12:29;;;;;;;3.80;1.63;;;;;;;;;;5092036;28;20063;-70
2022/05/30 14:15:09;;;;;;;1.75;1.40;;;;;;;;;;5073863;28;20051;-71
2022/05/30 14:17:35;;;;;;;1.17;1.08;;;;;;;;;;5092184;28;20101;-70
2022/05/30 14:20:12;;;;;;;3.38;1.50;;;;;;;;;;5073214;28;20036;-70
2022/05/30 14:22:40;;;;;;;2.50;1.52;;;;;;;;;;5041408;28;20109;-70
2022/05/30 14:25:08;;;;;;;3.47;1.50;;;;;;;;;;5073537;28;20094;-70
2022/05/30 14:27:35;;;;;;;4.82;1.30;;;;;;;;;;5074250;28;20051;-71
2022/05/30 14:30:02;;;;;;;2.70;1.50;;;;;;;;;;5092144;28;20511;-71
2022/05/30 14:32:30;;;;;;;1.83;1.30;;;;;;;;;;5074143;28;20040;-71
2022/05/30 14:34:56;;;;;;;2.60;1.50;;;;;;;;;;5091953;28;20055;-71
2022/05/30 14:37:26;;;;;;;1.50;1.20;;;;;;;;;;5073379;28;20035;-70
2022/05/30 14:39:53;;;;;;;1.52;1.30;;;;;;;;;;5072982;28;20515;-71
2022/05/30 14:42:20;;;;;;;1.30;1.20;;;;;;;;;;5091941;28;20505;-70
2022/05/30 14:44:50;;;;;;;1.42;1.35;;;;;;;;;;5073517;28;20047;-70
2022/05/30 14:47:29;;;;;;;2.22;1.98;;;;;;;;;;5090780;28;20040;-70
2022/05/30 14:50:00;;;;;;;7.43;1.50;;;;;;;;;;5055862;28;20663;-70
2022/05/30 14:52:30;;;;;;;1.92;0.95;;;;;;;;;;5091078;28;20535;-70
2022/05/30 14:55:00;;;;;;;1.15;1.15;;;;;;;;;;5055320;28;20056;-70
2022/05/30 14:57:30;;;;;;;1.60;1.50;;;;;;;;;;5073112;28;20093;-70
2022/05/30 14:59:56;;;;;;;1.70;1.60;;;;;;;;;;5090309;28;20048;-71
2022/05/30 15:05:07;;;;;;;5.00;2.05;;;;;;;;;;5074967;28;20038;-71
2022/05/30 15:07:37;;;;;;;4.50;2.22;;;;;;;;;;5090581;28;20048;-70
2022/05/30 15:10:06;;;;;;;3.37;3.07;;;;;;;;;;5089800;28;20044;-70
2022/05/30 15:12:32;;;;;;;1.90;1.80;;;;;;;;;;5089831;28;20474;-70
2022/05/30 15:14:58;;;;;;;6.80;2.40;;;;;;;;;;5089145;28;20077;-70
2022/05/30 15:17:24;;;;;;;1.85;1.75;;;;;;;;;;5054404;28;20036;-71
2022/05/30 15:19:56;;;;;;;1.48;1.38;;;;;;;;;;5089519;28;20036;-71
2022/05/30 15:22:22;;;;;;;2.75;1.95;;;;;;;;;;5071322;28;20052;-71
2022/05/30 15:24:55;;;;;;;2.58;1.70;;;;;;;;;;5071173;28;20036;-71
2022/05/30 15:27:22;;;;;;;2.30;1.88;;;;;;;;;;5089395;28;20039;-71
2022/05/30 15:29:48;;;;;;;7.63;2.10;;;;;;;;;;5088988;28;20139;-71
2022/05/30 15:32:21;;;;;;;2.10;1.80;;;;;;;;;;5090922;28;20127;-70
2022/05/30 15:34:47;;;;;;;1.90;1.67;;;;;;;;;;5092690;28;20036;-71
2022/05/30 15:37:17;;;;;;;5.05;2.22;;;;;;;;;;5092588;28;20150;-70
2022/05/30 15:39:46;;;;;;;;;;;;;;;;;;5093673;28;20059;-71
2022/05/30 15:42:12;;;;;;;10.63;2.40;;;;;;;;;;5093323;28;19912;-71
2022/05/30 15:44:39;;;;;;;2.10;1.90;;;;;;;;;;5093444;28;20438;-71
2022/05/30 15:47:06;;;;;;;6.57;2.05;;;;;;;;;;5074348;28;20036;-70
2022/05/30 15:49:31;;;;;;;6.07;2.30;;;;;;;;;;5092642;28;20127;-70
2022/05/30 15:52:01;;;;;;;2.10;1.90;;;;;;;;;;5092475;28;20044;-71
2022/05/30 15:57:34;;;;;;;5.75;2.00;;;;;;;;;;5084675;28;20056;-69
2022/05/30 16:00:00;;;;;;;1.95;1.80;;;;;;;;;;5079307;28;20055;-71
2022/05/30 16:02:26;;;;;;;4.07;2.47;;;;;;;;;;5088662;28;20130;-71
2022/05/30 16:04:52;;;;;;;3.25;1.77;;;;;;;;;;5046778;28;20044;-71